createdAt,value
2023-05-31T00:01:48.526Z,57.79
2023-05-31T00:04:15.397Z,57.85
2023-05-31T00:06:45.517Z,56.93
2023-05-31T00:09:12.277Z,56.44
2023-05-31T00:11:38.872Z,56.08
2023-05-31T00:14:05.524Z,56.23
2023-05-31T00:17:03.421Z,56.01
2023-05-31T00:19:29.243Z,55.99
2023-05-31T00:21:58.618Z,55.98
2023-05-31T00:24:25.275Z,56.08
2023-05-31T00:26:59.186Z,55.69
2023-05-31T00:29:39.378Z,55.85
2023-05-31T00:32:23.174Z,55.89
2023-05-31T00:34:59.880Z,55.64
2023-05-31T00:37:28.173Z,54.83
2023-05-31T00:39:55.094Z,55.26
2023-05-31T00:42:38.576Z,55.29
2023-05-31T00:45:19.341Z,55.45
2023-05-31T00:47:58.229Z,55.15
2023-05-31T00:50:41.484Z,55.46
2023-05-31T00:53:10.484Z,55.34
2023-05-31T00:55:38.039Z,55.63
2023-05-31T00:58:06.160Z,55.80
2023-05-31T01:00:36.122Z,55.37
2023-05-31T01:03:06.603Z,55.13
2023-05-31T01:05:37.368Z,55.43
2023-05-31T01:08:04.796Z,55.60
2023-05-31T01:10:36.295Z,55.46
2023-05-31T01:13:22.895Z,55.25
2023-05-31T01:16:15.836Z,54.92
2023-05-31T01:18:48.089Z,54.94
2023-05-31T01:21:30.179Z,55.07
2023-05-31T01:24:05.897Z,54.92
2023-05-31T01:26:39.046Z,54.39
2023-05-31T01:29:10.651Z,55.02
2023-05-31T01:31:42.194Z,55.10
2023-05-31T01:34:20.491Z,54.88
2023-05-31T01:36:48.401Z,54.96
2023-05-31T01:39:15.219Z,55.02
2023-05-31T01:41:43.338Z,55.30
2023-05-31T01:44:19.269Z,55.47
2023-05-31T01:46:46.936Z,55.42
2023-05-31T01:49:23.545Z,55.67
2023-05-31T01:52:00.301Z,55.53
2023-05-31T01:54:26.862Z,55.62
2023-05-31T01:57:03.681Z,55.45
2023-05-31T01:59:48.005Z,55.44
2023-05-31T02:02:25.791Z,55.11
2023-05-31T02:04:59.964Z,54.95
2023-05-31T02:07:27.198Z,55.36
2023-05-31T02:09:53.769Z,55.00
2023-05-31T02:12:30.722Z,55.20
2023-05-31T02:14:58.013Z,56.11
2023-05-31T02:17:32.897Z,57.22
2023-05-31T02:20:00.362Z,60.97
2023-05-31T02:22:26.990Z,59.35
2023-05-31T02:25:02.289Z,59.84
2023-05-31T02:27:34.656Z,60.63
2023-05-31T02:30:01.191Z,64.03
2023-05-31T02:32:28.050Z,66.79
2023-05-31T02:35:00.034Z,64.91
2023-05-31T02:37:26.873Z,65.11
2023-05-31T02:39:55.658Z,66.00
2023-05-31T02:42:30.909Z,66.25
2023-05-31T02:45:01.345Z,66.83
2023-05-31T02:47:28.392Z,68.86
2023-05-31T02:49:55.039Z,70.22
2023-05-31T02:52:29.026Z,69.47
2023-05-31T02:54:56.206Z,68.86
2023-05-31T02:57:22.921Z,71.45
2023-05-31T02:59:50.240Z,70.96
2023-05-31T03:02:24.485Z,73.24
2023-05-31T03:04:54.521Z,73.57
2023-05-31T03:07:21.195Z,73.55
2023-05-31T03:09:47.873Z,75.17
2023-05-31T03:12:18.005Z,73.52
2023-05-31T03:14:45.268Z,71.10
2023-05-31T03:17:11.930Z,73.74
2023-05-31T03:19:47.642Z,74.68
2023-05-31T03:22:22.464Z,74.67
2023-05-31T03:24:59.792Z,75.62
2023-05-31T03:27:36.650Z,75.04
2023-05-31T03:30:04.379Z,74.35
2023-05-31T03:32:35.611Z,73.91
2023-05-31T03:35:11.100Z,75.37
2023-05-31T03:37:40.319Z,75.27
2023-05-31T03:40:07.389Z,75.27
2023-05-31T03:42:34.175Z,73.91
2023-05-31T03:45:00.865Z,74.71
2023-05-31T03:47:31.242Z,75.13
2023-05-31T03:49:58.012Z,74.79
2023-05-31T03:52:25.793Z,75.07
2023-05-31T03:54:52.493Z,75.32
2023-05-31T03:57:19.143Z,76.92
2023-05-31T03:59:55.517Z,73.21
2023-05-31T04:02:22.859Z,72.14
2023-05-31T04:04:52.514Z,75.16
2023-05-31T04:07:21.541Z,76.06
2023-05-31T04:09:52.177Z,75.26
2023-05-31T04:12:18.820Z,75.02
2023-05-31T04:14:47.751Z,75.38
2023-05-31T04:17:14.356Z,75.15
2023-05-31T04:19:49.657Z,74.26
2023-05-31T04:22:16.405Z,74.81
2023-05-31T04:24:43.180Z,74.74
2023-05-31T04:27:20.089Z,74.76
2023-05-31T04:29:51.558Z,75.13
2023-05-31T04:32:22.996Z,74.02
2023-05-31T04:34:59.048Z,73.18
2023-05-31T04:37:27.859Z,73.26
2023-05-31T04:39:56.034Z,73.48
2023-05-31T04:42:26.833Z,73.27
2023-05-31T04:44:59.036Z,73.17
2023-05-31T04:47:31.230Z,73.47
2023-05-31T04:50:00.857Z,73.91
2023-05-31T04:52:30.342Z,73.72
2023-05-31T04:54:59.416Z,73.55
2023-05-31T04:57:27.677Z,73.77
2023-05-31T04:59:54.726Z,74.41
2023-05-31T05:02:22.878Z,73.82
2023-05-31T05:04:52.319Z,74.34
2023-05-31T05:07:18.998Z,74.76
2023-05-31T05:09:45.963Z,72.70
2023-05-31T05:12:12.784Z,72.99
2023-05-31T05:14:39.547Z,74.07
2023-05-31T05:17:09.169Z,73.54
2023-05-31T05:19:36.602Z,73.46
2023-05-31T05:22:03.245Z,73.77
2023-05-31T05:24:29.896Z,73.82
2023-05-31T05:26:56.836Z,72.33
2023-05-31T05:29:28.792Z,69.93
2023-05-31T05:32:04.237Z,70.42
2023-05-31T05:34:34.635Z,71.59
2023-05-31T05:37:04.235Z,71.77
2023-05-31T05:39:33.648Z,71.65
2023-05-31T05:42:00.392Z,69.22
2023-05-31T05:44:27.045Z,69.24
2023-05-31T05:46:53.798Z,68.67
2023-05-31T05:49:23.508Z,69.41
2023-05-31T05:51:54.790Z,69.75
2023-05-31T05:54:22.054Z,68.94
2023-05-31T05:56:48.618Z,69.01
2023-05-31T05:59:15.347Z,69.52
2023-05-31T06:01:44.422Z,70.40
2023-05-31T06:04:18.810Z,70.65
2023-05-31T06:06:46.650Z,69.62
2023-05-31T06:09:13.653Z,68.72
2023-05-31T06:11:43.606Z,68.76
2023-05-31T06:14:13.481Z,70.08
2023-05-31T06:16:40.094Z,69.09
2023-05-31T06:19:06.771Z,67.72
2023-05-31T06:21:33.426Z,66.46
2023-05-31T06:24:01.600Z,65.26
2023-05-31T06:26:28.303Z,65.70
2023-05-31T06:29:08.644Z,66.00
2023-05-31T06:31:37.403Z,67.54
2023-05-31T06:34:04.162Z,67.38
2023-05-31T06:36:31.176Z,68.05
2023-05-31T06:38:57.956Z,66.21
2023-05-31T06:41:25.211Z,66.83
2023-05-31T06:43:56.331Z,66.22
2023-05-31T06:46:24.393Z,66.46
2023-05-31T06:49:11.654Z,63.85
2023-05-31T06:51:39.257Z,62.02
2023-05-31T06:54:06.623Z,61.43
2023-05-31T06:56:33.244Z,61.40
2023-05-31T06:59:11.845Z,61.68
2023-05-31T07:01:42.901Z,61.82
2023-05-31T07:04:09.617Z,62.10
2023-05-31T07:06:39.010Z,61.85
2023-05-31T07:09:07.934Z,61.59
2023-05-31T07:11:36.166Z,60.60
2023-05-31T07:14:03.805Z,59.96
2023-05-31T07:16:30.481Z,60.52
2023-05-31T07:18:57.037Z,59.74
2023-05-31T07:21:31.067Z,59.07
2023-05-31T07:24:04.476Z,57.94
2023-05-31T07:26:31.162Z,56.63
2023-05-31T07:28:57.770Z,56.30
2023-05-31T07:31:24.532Z,57.59
2023-05-31T07:33:51.228Z,55.88
2023-05-31T07:36:18.573Z,55.98
2023-05-31T07:38:45.302Z,55.73
2023-05-31T07:41:11.881Z,55.84
2023-05-31T07:43:40.823Z,55.88
2023-05-31T07:46:07.480Z,56.14
2023-05-31T07:48:34.984Z,54.73
2023-05-31T07:51:03.916Z,55.66
2023-05-31T07:55:57.155Z,54.89
2023-05-31T07:58:23.807Z,54.67
2023-05-31T08:00:53.295Z,53.51
2023-05-31T08:03:20.342Z,54.97
2023-05-31T08:05:49.494Z,55.57
2023-05-31T08:08:17.249Z,55.35
2023-05-31T08:10:43.864Z,55.50
2023-05-31T08:13:10.689Z,56.68
2023-05-31T08:15:37.867Z,55.73
2023-05-31T08:18:04.591Z,53.69
2023-05-31T08:20:38.304Z,54.30
2023-05-31T08:23:09.021Z,54.26
2023-05-31T08:25:41.816Z,53.89
2023-05-31T08:28:09.492Z,54.23
2023-05-31T08:30:45.377Z,53.75
2023-05-31T08:33:14.403Z,52.25
2023-05-31T08:35:42.129Z,54.04
2023-05-31T08:38:11.149Z,53.37
2023-05-31T08:40:37.860Z,52.98
2023-05-31T08:43:08.731Z,54.41
2023-05-31T08:45:38.313Z,52.93
2023-05-31T08:48:23.894Z,53.42
2023-05-31T08:50:59.137Z,52.89
2023-05-31T08:53:26.995Z,52.82
2023-05-31T08:55:55.015Z,52.71
2023-05-31T08:58:21.946Z,52.73
2023-05-31T09:00:54.584Z,51.61
2023-05-31T09:03:27.745Z,50.78
2023-05-31T09:06:01.431Z,50.90
2023-05-31T09:08:28.563Z,50.09
2023-05-31T09:10:55.210Z,49.98
2023-05-31T09:13:24.629Z,49.60
2023-05-31T09:15:54.832Z,48.21
2023-05-31T09:18:22.151Z,48.29
2023-05-31T09:20:54.661Z,48.71
2023-05-31T09:23:21.751Z,46.99
2023-05-31T09:25:53.352Z,47.33
2023-05-31T09:28:20.925Z,47.43
2023-05-31T09:31:01.976Z,47.58
2023-05-31T09:33:38.367Z,48.01
2023-05-31T09:36:04.936Z,46.84
2023-05-31T09:38:35.151Z,45.87
2023-05-31T09:41:19.133Z,45.90
2023-05-31T09:43:48.229Z,45.66
2023-05-31T09:46:15.984Z,46.66
2023-05-31T09:48:43.484Z,45.78
2023-05-31T09:51:10.778Z,46.75
2023-05-31T09:53:39.568Z,47.11
2023-05-31T09:56:09.849Z,47.33
2023-05-31T09:58:36.469Z,47.46
2023-05-31T10:01:03.507Z,47.22
2023-05-31T10:03:30.696Z,47.29
2023-05-31T10:05:57.408Z,47.07
2023-05-31T10:08:27.977Z,47.36
2023-05-31T10:10:56.735Z,47.74
2023-05-31T10:13:26.891Z,47.93
2023-05-31T10:15:55.070Z,47.13
2023-05-31T10:18:22.453Z,46.59
2023-05-31T10:20:56.846Z,46.43
2023-05-31T10:23:24.675Z,46.41
2023-05-31T10:26:03.665Z,45.10
2023-05-31T10:28:32.883Z,46.03
2023-05-31T10:31:01.507Z,45.40
2023-05-31T10:33:31.958Z,44.58
2023-05-31T10:36:00.397Z,44.94
2023-05-31T10:38:50.433Z,44.61
2023-05-31T10:41:25.043Z,43.56
2023-05-31T10:43:59.174Z,44.40
2023-05-31T10:46:31.684Z,44.33
2023-05-31T10:48:59.553Z,44.83
2023-05-31T10:51:53.534Z,43.71
2023-05-31T10:54:28.437Z,42.73
2023-05-31T10:56:55.964Z,41.24
2023-05-31T10:59:23.610Z,40.74
2023-05-31T11:01:51.005Z,40.80
2023-05-31T11:04:26.072Z,40.57
2023-05-31T11:06:53.928Z,39.91
2023-05-31T11:09:22.296Z,38.56
2023-05-31T11:11:50.235Z,39.57
2023-05-31T11:14:16.846Z,39.05
2023-05-31T11:16:50.523Z,39.71
2023-05-31T11:19:18.516Z,38.83
2023-05-31T11:21:51.709Z,39.92
2023-05-31T11:24:30.870Z,39.74
2023-05-31T11:27:06.702Z,38.88
2023-05-31T11:29:45.943Z,38.86
2023-05-31T11:32:12.859Z,39.04
2023-05-31T11:35:00.235Z,38.80
2023-05-31T11:37:31.270Z,39.19
2023-05-31T11:40:07.308Z,39.43
2023-05-31T11:42:38.268Z,40.00
2023-05-31T11:45:15.053Z,38.44
2023-05-31T11:47:53.054Z,37.59
2023-05-31T11:50:20.879Z,35.69
2023-05-31T11:52:48.126Z,36.03
2023-05-31T11:55:20.851Z,35.49
2023-05-31T11:58:02.843Z,36.09
2023-05-31T12:00:30.814Z,36.15
2023-05-31T12:03:07.182Z,35.20
2023-05-31T12:05:34.005Z,35.64
2023-05-31T12:08:07.202Z,34.50
2023-05-31T12:10:34.452Z,34.28
2023-05-31T12:13:08.669Z,34.44
2023-05-31T12:15:50.894Z,34.79
2023-05-31T12:18:17.493Z,34.07
2023-05-31T12:20:44.212Z,34.22
2023-05-31T12:23:12.049Z,33.33
2023-05-31T12:25:44.259Z,32.55
2023-05-31T12:28:15.236Z,34.07
2023-05-31T12:30:47.569Z,34.34
2023-05-31T12:33:14.454Z,34.15
2023-05-31T12:35:45.920Z,33.93
2023-05-31T12:38:12.775Z,34.02
2023-05-31T12:40:49.543Z,33.82
2023-05-31T12:43:20.189Z,33.41
2023-05-31T12:45:47.055Z,33.99
2023-05-31T12:48:28.118Z,33.43
2023-05-31T12:51:02.496Z,33.38
2023-05-31T12:53:31.326Z,33.29
2023-05-31T12:55:58.199Z,32.96
2023-05-31T12:58:28.938Z,32.69
2023-05-31T13:01:01.792Z,32.58
2023-05-31T13:03:37.841Z,32.20
2023-05-31T13:06:10.783Z,32.09
2023-05-31T13:08:39.141Z,31.88
2023-05-31T13:11:05.821Z,31.96
2023-05-31T13:13:32.473Z,30.81
2023-05-31T13:16:02.954Z,32.12
2023-05-31T13:18:30.450Z,31.20
2023-05-31T13:20:59.827Z,31.94
2023-05-31T13:23:30.488Z,31.91
2023-05-31T13:26:05.336Z,31.95
2023-05-31T13:28:35.881Z,30.89
2023-05-31T13:31:02.814Z,30.40
2023-05-31T13:33:37.231Z,30.56
2023-05-31T13:36:08.727Z,30.21
2023-05-31T13:38:35.508Z,30.23
2023-05-31T13:41:02.327Z,30.28
2023-05-31T13:43:30.875Z,30.18
2023-05-31T13:46:03.728Z,30.33
2023-05-31T13:48:30.427Z,30.28
2023-05-31T13:50:57.008Z,29.70
2023-05-31T13:53:27.805Z,30.15
2023-05-31T13:56:03.272Z,30.51
2023-05-31T13:58:34.513Z,29.88
2023-05-31T14:01:04.422Z,29.88
2023-05-31T14:03:33.366Z,30.09
2023-05-31T14:06:01.140Z,29.72
2023-05-31T14:08:28.237Z,29.83
2023-05-31T14:10:59.189Z,29.76
2023-05-31T14:13:26.096Z,30.25
2023-05-31T14:15:55.101Z,30.68
2023-05-31T14:18:21.696Z,31.53
2023-05-31T14:20:48.626Z,32.67
2023-05-31T14:23:15.356Z,34.08
2023-05-31T14:25:42.076Z,33.68
2023-05-31T14:28:13.663Z,33.96
2023-05-31T14:30:40.312Z,34.72
2023-05-31T14:33:07.478Z,34.77
2023-05-31T14:35:34.644Z,35.34
2023-05-31T14:38:20.941Z,35.43
2023-05-31T14:40:59.036Z,35.80
2023-05-31T14:43:34.848Z,35.96
2023-05-31T14:46:05.201Z,36.41
2023-05-31T14:48:34.118Z,36.75
2023-05-31T14:51:00.930Z,36.08
2023-05-31T14:53:41.223Z,36.56
2023-05-31T14:56:17.960Z,36.64
2023-05-31T14:58:47.972Z,36.62
2023-05-31T15:01:16.227Z,36.86
2023-05-31T15:03:49.516Z,36.75
2023-05-31T15:06:16.862Z,37.03
2023-05-31T15:08:56.001Z,36.88
2023-05-31T15:11:31.612Z,36.97
2023-05-31T15:14:01.632Z,37.54
2023-05-31T15:16:28.754Z,36.75
2023-05-31T15:18:55.977Z,36.87
2023-05-31T15:21:24.432Z,37.33
2023-05-31T15:23:56.900Z,37.25
2023-05-31T15:26:28.292Z,37.45
2023-05-31T15:28:58.119Z,37.38
2023-05-31T15:31:25.415Z,37.11
2023-05-31T15:33:52.971Z,37.12
2023-05-31T15:36:23.849Z,37.38
2023-05-31T15:38:55.564Z,37.76
2023-05-31T15:41:23.973Z,37.54
2023-05-31T15:43:50.650Z,36.86
2023-05-31T15:46:17.360Z,37.17
2023-05-31T15:48:44.131Z,37.00
2023-05-31T15:51:12.241Z,36.62
2023-05-31T15:53:47.042Z,35.91
2023-05-31T15:56:22.184Z,35.18
2023-05-31T15:58:56.615Z,33.69
2023-05-31T16:01:23.932Z,32.95
2023-05-31T16:03:51.016Z,32.50
2023-05-31T16:06:19.220Z,31.96
2023-05-31T16:08:45.869Z,31.83
2023-05-31T16:11:15.959Z,31.63
2023-05-31T16:13:42.825Z,31.04
2023-05-31T16:16:09.426Z,30.19
2023-05-31T16:18:36.127Z,30.70
2023-05-31T16:21:02.985Z,29.80
2023-05-31T16:23:39.553Z,30.35
2023-05-31T16:26:16.721Z,30.86
2023-05-31T16:28:44.381Z,30.81
2023-05-31T16:31:14.709Z,31.04
2023-05-31T16:33:41.949Z,31.08
2023-05-31T16:36:08.639Z,31.77
2023-05-31T16:38:35.436Z,32.00
2023-05-31T16:41:02.173Z,31.81
2023-05-31T16:43:35.405Z,32.34
2023-05-31T16:46:05.279Z,32.18
2023-05-31T16:48:32.265Z,32.39
2023-05-31T16:51:05.363Z,32.27
2023-05-31T16:53:32.105Z,33.31
2023-05-31T16:56:07.143Z,33.84
2023-05-31T16:58:42.598Z,33.95
2023-05-31T17:04:00.067Z,35.42
2023-05-31T17:06:26.923Z,36.01
2023-05-31T17:08:53.589Z,37.39
2023-05-31T17:11:20.368Z,37.37
2023-05-31T17:13:48.888Z,38.04
2023-05-31T17:16:15.794Z,38.24
2023-05-31T17:18:45.193Z,38.81
2023-05-31T17:21:12.443Z,39.48
2023-05-31T17:23:39.025Z,39.87
2023-05-31T17:26:05.727Z,40.42
2023-05-31T17:28:32.335Z,40.84
2023-05-31T17:31:00.971Z,41.01
2023-05-31T17:33:33.118Z,40.62
2023-05-31T17:36:00.411Z,40.28
2023-05-31T17:38:33.178Z,40.30
2023-05-31T17:41:00.783Z,40.27
2023-05-31T17:43:27.755Z,40.22
2023-05-31T17:45:55.141Z,39.58
2023-05-31T17:48:25.456Z,39.35
2023-05-31T17:50:52.748Z,39.36
2023-05-31T17:53:19.330Z,39.53
2023-05-31T17:55:45.995Z,39.85
2023-05-31T17:58:16.767Z,39.65
2023-05-31T18:00:43.392Z,39.95
2023-05-31T18:03:10.195Z,40.47
2023-05-31T18:05:40.511Z,40.80
2023-05-31T18:08:07.302Z,40.80
2023-05-31T18:10:33.868Z,41.47
2023-05-31T18:13:00.560Z,41.99
2023-05-31T18:15:27.214Z,41.96
2023-05-31T18:17:53.808Z,41.98
2023-05-31T18:20:20.632Z,42.43
2023-05-31T18:22:47.203Z,42.26
2023-05-31T18:25:13.785Z,42.67
2023-05-31T18:27:40.917Z,42.58
2023-05-31T18:30:07.792Z,43.49
2023-05-31T18:32:34.693Z,43.53
2023-05-31T18:35:01.623Z,44.29
2023-05-31T18:37:36.172Z,44.57
2023-05-31T18:40:03.443Z,45.02
2023-05-31T18:42:30.463Z,45.42
2023-05-31T18:44:57.235Z,45.76
2023-05-31T18:47:32.583Z,46.15
2023-05-31T18:50:01.157Z,46.05
2023-05-31T18:52:29.137Z,46.71
2023-05-31T18:54:56.104Z,46.54
2023-05-31T18:57:22.713Z,46.69
2023-05-31T18:59:49.638Z,46.73
2023-05-31T19:02:16.253Z,46.67
2023-05-31T19:04:42.967Z,46.48
2023-05-31T19:07:09.977Z,47.12
2023-05-31T19:09:36.637Z,46.53
2023-05-31T19:12:03.650Z,46.88
2023-05-31T19:14:30.304Z,46.98
2023-05-31T19:16:57.003Z,47.30
2023-05-31T19:19:23.546Z,47.33
2023-05-31T19:21:50.139Z,47.19
2023-05-31T19:24:16.753Z,47.39
2023-05-31T19:26:43.399Z,47.40
2023-05-31T19:29:11.503Z,47.61
2023-05-31T19:31:38.181Z,47.99
2023-05-31T19:34:04.902Z,48.33
2023-05-31T19:36:32.250Z,48.08
2023-05-31T19:39:02.275Z,48.28
2023-05-31T19:41:30.282Z,48.41
2023-05-31T19:43:56.825Z,48.11
2023-05-31T19:46:28.439Z,48.06
2023-05-31T19:48:58.127Z,48.64
2023-05-31T19:51:29.103Z,49.14
2023-05-31T19:53:55.879Z,49.45
2023-05-31T19:56:25.731Z,49.09
2023-05-31T19:58:52.579Z,49.63
2023-05-31T20:01:19.638Z,49.91
2023-05-31T20:03:46.424Z,50.06
2023-05-31T20:06:23.243Z,50.04
2023-05-31T20:08:50.306Z,50.26
2023-05-31T20:11:17.615Z,50.08
2023-05-31T20:13:44.106Z,50.43
2023-05-31T20:16:12.135Z,50.57
2023-05-31T20:18:38.998Z,50.66
2023-05-31T20:21:07.356Z,50.98
2023-05-31T20:23:33.938Z,50.47
2023-05-31T20:26:00.700Z,50.62
2023-05-31T20:28:27.490Z,50.51
2023-05-31T20:30:56.210Z,50.72
2023-05-31T20:33:22.952Z,50.94
2023-05-31T20:35:53.376Z,51.68
2023-05-31T20:38:21.133Z,52.17
2023-05-31T20:40:47.771Z,52.15
2023-05-31T20:43:18.000Z,52.09
2023-05-31T20:45:47.222Z,52.14
2023-05-31T20:48:13.844Z,51.99
2023-05-31T20:50:45.479Z,52.44
2023-05-31T20:53:12.089Z,52.62
2023-05-31T20:55:41.779Z,52.63
2023-05-31T20:58:09.483Z,53.32
2023-05-31T21:00:36.525Z,53.46
2023-05-31T21:03:03.323Z,53.07
2023-05-31T21:05:34.599Z,52.92
2023-05-31T21:08:04.747Z,53.08
2023-05-31T21:10:31.321Z,53.02
2023-05-31T21:12:58.051Z,53.62
2023-05-31T21:15:34.657Z,53.51
2023-05-31T21:18:13.521Z,53.64
2023-05-31T21:20:43.253Z,53.57
2023-05-31T21:23:09.925Z,54.39
2023-05-31T21:25:38.980Z,54.59
2023-05-31T21:28:05.991Z,54.69
2023-05-31T21:30:37.244Z,54.93
2023-05-31T21:33:04.052Z,54.24
2023-05-31T21:35:32.969Z,54.31
2023-05-31T21:38:03.003Z,54.17
2023-05-31T21:40:30.294Z,54.13
2023-05-31T21:42:57.068Z,54.70
2023-05-31T21:45:23.754Z,55.03
2023-05-31T21:47:51.452Z,55.41
2023-05-31T21:50:18.145Z,54.97
2023-05-31T21:52:45.236Z,55.34
2023-05-31T21:55:12.052Z,55.50
2023-05-31T21:57:38.856Z,55.70
2023-05-31T22:00:09.372Z,55.38
2023-05-31T22:02:37.750Z,55.34
2023-05-31T22:05:05.386Z,55.67
2023-05-31T22:07:38.089Z,55.72
2023-05-31T22:10:06.487Z,55.58
2023-05-31T22:12:34.200Z,55.82
2023-05-31T22:15:02.201Z,55.75
2023-05-31T22:17:29.080Z,56.17
2023-05-31T22:20:03.658Z,56.09
2023-05-31T22:22:30.703Z,56.47
2023-05-31T22:25:09.564Z,57.00
2023-05-31T22:27:40.308Z,57.14
2023-05-31T22:30:09.487Z,57.49
2023-05-31T22:32:39.710Z,57.69
2023-05-31T22:35:09.040Z,57.96
2023-05-31T22:37:36.184Z,57.64
2023-05-31T22:40:15.012Z,57.93
2023-05-31T22:42:42.418Z,58.19
2023-05-31T22:45:09.625Z,58.01
2023-05-31T22:47:36.812Z,58.42
2023-05-31T22:50:05.640Z,58.50
2023-05-31T22:52:40.940Z,58.54
2023-05-31T22:55:11.015Z,58.86
2023-05-31T22:57:40.161Z,58.69
2023-05-31T23:00:11.984Z,58.85
2023-05-31T23:02:39.958Z,58.73
2023-05-31T23:05:13.261Z,57.82
2023-05-31T23:07:42.918Z,57.69
2023-05-31T23:10:12.034Z,56.77
2023-05-31T23:12:54.088Z,56.99
2023-05-31T23:15:22.173Z,58.52
2023-05-31T23:17:50.463Z,58.81
2023-05-31T23:20:17.635Z,59.17
2023-05-31T23:22:45.201Z,59.66
2023-05-31T23:25:12.532Z,59.56
2023-05-31T23:27:39.720Z,59.86
2023-05-31T23:30:07.243Z,59.55
2023-05-31T23:32:34.015Z,59.64
2023-05-31T23:35:17.085Z,59.96
2023-05-31T23:38:01.655Z,60.02
2023-05-31T23:40:32.147Z,60.33
2023-05-31T23:42:58.773Z,60.64
2023-05-31T23:45:35.292Z,60.95
2023-05-31T23:48:02.653Z,60.45
2023-05-31T23:50:29.418Z,60.50
2023-05-31T23:52:56.949Z,60.49
2023-05-31T23:55:25.535Z,60.67
2023-05-31T23:57:52.556Z,60.83
